Pagina principale
METAR-TAF:

METAR-TAF

Aeroporti :

Base aerea di Aviano

Aviano, Italia

latitudine: 46-02N, longitudine: 012-36E, altezza: 128 m

Osservazione

Il bollettino è stato emesso 4 ore e 7 minuti fa, alle 20:55 UTC
Vento 1 kt da sud-ovest
Temperature 23°C
Umidità 78%
Pressione 1018 hPa
Visibilità 10 km o più
Nubi sparse ad un'altezza di 4000 ft
Nubi sparse ad un'altezza di 8000 ft

METAR: LIPA 142055Z 22001KT 9999 SCT040 SCT080 23/19 Q1018 RMK BKN VIS MIN 9999 WIND THR05/////KT WIND THR23/////KT A3007 BLU

Ora: 03:02 (01:02 UTC)

Previsione

Il bollettino è stato emesso 8 ore e 2 minuti fa, alle 17:00 UTC
Previsione valida dal 14 alle 18 UTC al 15 alle 03 UTC
Vento 10 kt da sud/sud-est
Visibilità 10 km o più
Nubi sparse ad un'altezza di 4000 ft
Nubi sparse ad un'altezza di 8000 ft

TAF: LIPA 141700Z 1418/1503 16010KT 9999 SCT040 SCT080

Osservazioni e previsioni meteorologiche di più di 4000 aeroporti (messaggi METAR e TAF).

Le stazioni disponibili sono rappresentate dai dischi gialli e rossi sulla carta.

Puntare il mouse per vedere il nome della stazione.

Clicca sopra per visualizzare le osservazioni e previsioni meteorologiche.

Per cambiare la mappa : fare clic sui pulsanti verdi con una croce nera per ingrandire, il pulsante verde con un trattino per diminuire, o sulla freccia verde per le mappe adiacenti.


METAR-TAF: